createdAt,value
2022-10-28T00:00:56.759Z,24.40
2022-10-28T00:03:24.601Z,24.40
2022-10-28T00:05:54.610Z,24.40
2022-10-28T00:08:23.030Z,24.40
2022-10-28T00:10:50.519Z,24.50
2022-10-28T00:13:18.009Z,24.50
2022-10-28T00:15:45.546Z,24.50
2022-10-28T00:18:13.085Z,24.60
2022-10-28T00:20:40.621Z,24.60
2022-10-28T00:23:08.173Z,24.70
2022-10-28T00:25:36.467Z,24.70
2022-10-28T00:28:05.753Z,24.80
2022-10-28T00:30:33.505Z,24.80
2022-10-28T00:33:01.126Z,24.90
2022-10-28T00:35:29.033Z,25.00
2022-10-28T00:37:56.530Z,25.00
2022-10-28T00:40:24.887Z,25.00
2022-10-28T00:42:53.531Z,25.10
2022-10-28T00:45:22.126Z,25.10
2022-10-28T00:47:55.791Z,25.20
2022-10-28T00:50:42.791Z,25.30
2022-10-28T00:53:16.962Z,25.30
2022-10-28T00:55:45.652Z,25.40
2022-10-28T00:58:14.364Z,25.40
2022-10-28T01:00:42.873Z,25.50
2022-10-28T01:03:11.688Z,25.60
2022-10-28T01:05:42.158Z,25.60
2022-10-28T01:08:10.791Z,25.70
2022-10-28T01:10:38.597Z,25.80
2022-10-28T01:13:24.664Z,25.80
2022-10-28T01:16:18.360Z,25.90
2022-10-28T01:18:53.601Z,26.10
2022-10-28T01:21:25.082Z,26.10
2022-10-28T01:23:53.117Z,26.20
2022-10-28T01:26:23.786Z,26.30
2022-10-28T01:28:51.518Z,26.40
2022-10-28T01:31:41.686Z,26.40
2022-10-28T01:34:25.077Z,26.50
2022-10-28T01:37:07.173Z,26.50
2022-10-28T01:39:38.896Z,26.60
2022-10-28T01:42:06.487Z,26.70
2022-10-28T01:44:54.549Z,26.70
2022-10-28T01:47:32.027Z,26.80
2022-10-28T01:50:04.141Z,26.80
2022-10-28T01:52:32.648Z,26.80
2022-10-28T01:55:09.099Z,26.90
2022-10-28T01:57:39.664Z,26.90
2022-10-28T02:00:07.676Z,27.00
2022-10-28T02:02:38.103Z,27.00
2022-10-28T02:05:26.275Z,27.00
2022-10-28T02:07:57.985Z,27.10
2022-10-28T02:10:33.336Z,27.10
2022-10-28T02:13:04.198Z,27.20
2022-10-28T02:15:35.134Z,27.20
2022-10-28T02:18:14.989Z,27.30
2022-10-28T02:20:54.859Z,27.30
2022-10-28T02:23:25.491Z,27.40
2022-10-28T02:25:57.943Z,27.50
2022-10-28T02:29:03.901Z,27.50
2022-10-28T02:31:37.530Z,27.50
2022-10-28T02:34:08.841Z,27.60
2022-10-28T02:36:39.774Z,27.60
2022-10-28T02:39:08.767Z,27.60
2022-10-28T02:41:49.446Z,27.70
2022-10-28T02:44:22.928Z,27.70
2022-10-28T02:46:51.909Z,27.80
2022-10-28T02:49:19.694Z,27.90
2022-10-28T02:51:50.896Z,27.90
2022-10-28T02:54:21.674Z,28.00
2022-10-28T02:56:52.296Z,28.10
2022-10-28T02:59:22.105Z,28.10
2022-10-28T03:01:50.825Z,28.20
2022-10-28T03:04:18.821Z,28.20
2022-10-28T03:06:46.439Z,28.20
2022-10-28T03:09:15.474Z,28.30
2022-10-28T03:11:43.195Z,28.30
2022-10-28T03:14:13.299Z,28.40
2022-10-28T03:16:43.677Z,28.40
2022-10-28T03:19:12.213Z,28.50
2022-10-28T03:21:41.505Z,28.50
2022-10-28T03:24:10.909Z,28.60
2022-10-28T03:26:39.471Z,28.70
2022-10-28T03:29:08.745Z,28.80
2022-10-28T03:31:36.749Z,28.80
2022-10-28T03:34:05.107Z,28.90
2022-10-28T03:36:32.719Z,28.90
2022-10-28T03:39:00.549Z,29.00
2022-10-28T03:41:29.473Z,29.00
2022-10-28T03:43:57.241Z,29.00
2022-10-28T03:46:26.394Z,29.10
2022-10-28T03:48:54.347Z,29.20
2022-10-28T03:51:23.025Z,29.20
2022-10-28T03:53:50.918Z,29.20
2022-10-28T03:56:22.713Z,29.30
2022-10-28T04:01:18.769Z,29.40
2022-10-28T04:03:47.486Z,29.50
2022-10-28T04:06:15.349Z,29.50
2022-10-28T04:08:44.178Z,29.50
2022-10-28T04:11:12.773Z,29.60
2022-10-28T04:13:40.792Z,29.50
2022-10-28T04:16:09.679Z,29.50
2022-10-28T04:18:38.146Z,29.60
2022-10-28T04:21:05.963Z,29.60
2022-10-28T04:23:33.826Z,29.70
2022-10-28T04:26:02.213Z,29.80
2022-10-28T04:28:33.067Z,29.80
2022-10-28T04:31:03.291Z,29.90
2022-10-28T04:33:31.788Z,30.00
2022-10-28T04:35:59.373Z,30.00
2022-10-28T04:38:27.319Z,30.00
2022-10-28T04:40:55.062Z,30.10
2022-10-28T04:43:24.441Z,30.10
2022-10-28T04:45:52.117Z,30.20
2022-10-28T04:48:19.666Z,30.30
2022-10-28T04:50:47.585Z,30.40
2022-10-28T04:53:21.290Z,30.40
2022-10-28T04:55:52.682Z,30.40
2022-10-28T04:58:21.278Z,30.40
2022-10-28T05:00:49.661Z,30.50
2022-10-28T05:03:17.842Z,30.50
2022-10-28T05:05:45.555Z,30.40
2022-10-28T05:08:13.200Z,30.40
2022-10-28T05:10:41.374Z,30.40
2022-10-28T05:13:09.813Z,30.40
2022-10-28T05:15:39.482Z,30.40
2022-10-28T05:18:07.016Z,30.50
2022-10-28T05:20:34.852Z,30.50
2022-10-28T05:23:03.575Z,30.50
2022-10-28T05:25:31.342Z,30.50
2022-10-28T05:28:00.637Z,30.50
2022-10-28T05:30:29.887Z,30.50
2022-10-28T05:33:06.867Z,30.40
2022-10-28T05:35:35.414Z,30.50
2022-10-28T05:38:03.208Z,30.50
2022-10-28T05:40:33.171Z,30.60
2022-10-28T05:43:01.701Z,30.70
2022-10-28T05:47:58.705Z,30.80
2022-10-28T05:50:27.040Z,30.80
2022-10-28T05:52:56.179Z,30.80
2022-10-28T05:55:25.249Z,30.80
2022-10-28T05:57:53.460Z,30.80
2022-10-28T06:00:22.877Z,30.80
2022-10-28T06:02:56.477Z,30.80
2022-10-28T06:05:24.639Z,30.70
2022-10-28T06:07:52.253Z,30.70
2022-10-28T06:10:21.987Z,30.70
2022-10-28T06:12:48.326Z,30.80
2022-10-28T06:15:15.911Z,30.80
2022-10-28T06:17:46.793Z,30.80
2022-10-28T06:20:14.735Z,30.90
2022-10-28T06:22:48.681Z,30.90
2022-10-28T06:25:17.079Z,30.90
2022-10-28T06:27:46.228Z,30.90
2022-10-28T06:30:14.325Z,30.90
2022-10-28T06:32:41.830Z,30.90
2022-10-28T06:35:09.423Z,30.90
2022-10-28T06:37:37.563Z,30.90
2022-10-28T06:40:05.733Z,30.90
2022-10-28T06:42:33.781Z,30.90
2022-10-28T06:45:01.862Z,30.90
2022-10-28T06:47:31.024Z,30.90
2022-10-28T06:49:58.621Z,30.90
2022-10-28T06:52:26.332Z,31.00
2022-10-28T06:54:54.342Z,31.00
2022-10-28T06:57:24.498Z,31.00
2022-10-28T06:59:56.198Z,31.00
2022-10-28T07:02:26.081Z,31.00
2022-10-28T07:04:53.929Z,31.10
2022-10-28T07:07:23.770Z,31.10
2022-10-28T07:09:51.631Z,31.10
2022-10-28T07:12:19.586Z,31.00
2022-10-28T07:14:47.859Z,31.00
2022-10-28T07:17:15.631Z,31.00
2022-10-28T07:19:43.993Z,31.00
2022-10-28T07:22:16.753Z,31.00
2022-10-28T07:24:44.634Z,31.10
2022-10-28T07:27:12.588Z,31.10
2022-10-28T07:29:49.777Z,31.10
2022-10-28T07:32:18.119Z,31.10
2022-10-28T07:34:46.215Z,31.10
2022-10-28T07:37:17.761Z,31.00
2022-10-28T07:39:49.540Z,31.00
2022-10-28T07:42:18.072Z,31.00
2022-10-28T07:44:45.998Z,31.00
2022-10-28T07:47:13.914Z,31.00
2022-10-28T07:49:41.833Z,31.00
2022-10-28T07:52:10.103Z,31.00
2022-10-28T07:54:38.044Z,31.10
2022-10-28T07:57:05.972Z,31.00
2022-10-28T07:59:33.899Z,31.00
2022-10-28T08:02:01.765Z,31.00
2022-10-28T08:04:33.465Z,31.00
2022-10-28T08:07:01.878Z,31.00
2022-10-28T08:09:29.794Z,31.00
2022-10-28T08:11:57.922Z,31.00
2022-10-28T08:14:26.588Z,31.10
2022-10-28T08:16:54.699Z,31.00
2022-10-28T08:19:22.790Z,31.00
2022-10-28T08:21:50.323Z,31.00
2022-10-28T08:24:18.104Z,31.00
2022-10-28T08:26:46.191Z,31.00
2022-10-28T08:29:14.604Z,31.00
2022-10-28T08:31:42.924Z,31.00
2022-10-28T08:34:10.563Z,31.00
2022-10-28T08:36:38.209Z,31.00
2022-10-28T08:39:06.045Z,31.00
2022-10-28T08:41:36.773Z,31.00
2022-10-28T08:44:13.696Z,31.00
2022-10-28T08:46:53.362Z,30.90
2022-10-28T08:49:23.111Z,30.90
2022-10-28T08:51:57.465Z,30.90
2022-10-28T08:54:31.333Z,30.90
2022-10-28T08:57:01.963Z,30.90
2022-10-28T08:59:36.679Z,30.90
2022-10-28T09:02:15.763Z,30.90
2022-10-28T09:04:44.853Z,30.80
2022-10-28T09:07:19.913Z,30.80
2022-10-28T09:09:48.799Z,30.90
2022-10-28T09:12:30.923Z,30.80
2022-10-28T09:15:05.381Z,30.80
2022-10-28T09:17:34.298Z,30.80
2022-10-28T09:20:15.769Z,30.70
2022-10-28T09:22:46.795Z,30.70
2022-10-28T09:25:15.253Z,30.70
2022-10-28T09:27:48.978Z,30.60
2022-10-28T09:30:36.593Z,30.60
2022-10-28T09:33:04.336Z,30.60
2022-10-28T09:35:34.714Z,30.50
2022-10-28T09:38:09.302Z,30.50
2022-10-28T09:40:37.509Z,30.50
2022-10-28T09:43:27.561Z,30.50
2022-10-28T09:45:58.389Z,30.50
2022-10-28T09:48:38.873Z,30.40
2022-10-28T09:51:06.842Z,30.40
2022-10-28T09:53:40.920Z,30.40
2022-10-28T09:58:36.880Z,30.40
2022-10-28T10:01:05.508Z,30.40
2022-10-28T10:03:34.489Z,30.40
2022-10-28T10:06:12.579Z,30.30
2022-10-28T10:08:42.206Z,30.20
2022-10-28T10:11:24.712Z,30.20
2022-10-28T10:13:52.975Z,30.10
2022-10-28T10:16:43.054Z,30.10
2022-10-28T10:19:14.238Z,30.00
2022-10-28T10:21:43.557Z,30.00
2022-10-28T10:24:23.600Z,29.90
2022-10-28T10:26:56.577Z,29.80
2022-10-28T10:29:26.733Z,29.80
2022-10-28T10:32:13.560Z,29.70
2022-10-28T10:34:46.083Z,29.60
2022-10-28T10:37:18.950Z,29.50
2022-10-28T10:39:46.870Z,29.50
2022-10-28T10:42:18.580Z,29.40
2022-10-28T10:44:48.157Z,29.40
2022-10-28T10:47:20.986Z,29.30
2022-10-28T10:49:50.083Z,29.30
2022-10-28T10:52:26.434Z,29.30
2022-10-28T10:54:58.818Z,29.20
2022-10-28T10:57:26.599Z,29.20
2022-10-28T10:59:55.951Z,29.20
2022-10-28T11:02:30.165Z,29.10
2022-10-28T11:05:07.798Z,29.00
2022-10-28T11:07:39.001Z,29.00
2022-10-28T11:10:16.279Z,29.00
2022-10-28T11:12:52.406Z,29.00
2022-10-28T11:15:20.957Z,28.90
2022-10-28T11:17:57.527Z,28.90
2022-10-28T11:20:34.586Z,28.90
2022-10-28T11:23:09.862Z,28.80
2022-10-28T11:25:38.894Z,28.80
2022-10-28T11:28:30.576Z,28.80
2022-10-28T11:31:10.764Z,28.70
2022-10-28T11:33:59.021Z,28.70
2022-10-28T11:36:33.632Z,28.60
2022-10-28T11:39:16.288Z,28.60
2022-10-28T11:41:46.913Z,28.60
2022-10-28T11:44:32.769Z,28.50
2022-10-28T11:47:18.603Z,28.50
2022-10-28T11:49:49.453Z,28.50
2022-10-28T11:52:21.454Z,28.50
2022-10-28T11:55:18.231Z,28.40
2022-10-28T11:57:55.196Z,28.40
2022-10-28T12:00:22.867Z,28.40
2022-10-28T12:03:06.232Z,28.30
2022-10-28T12:05:39.128Z,28.40
2022-10-28T12:08:25.255Z,28.30
2022-10-28T12:11:11.341Z,28.30
2022-10-28T12:13:45.039Z,28.30
2022-10-28T12:16:15.567Z,28.30
2022-10-28T12:18:51.942Z,28.20
2022-10-28T12:21:32.202Z,28.20
2022-10-28T12:24:01.041Z,28.20
2022-10-28T12:26:49.409Z,28.20
2022-10-28T12:29:20.526Z,28.20
2022-10-28T12:31:52.410Z,28.10
2022-10-28T12:34:23.540Z,28.10
2022-10-28T12:36:59.258Z,28.10
2022-10-28T12:39:31.784Z,28.10
2022-10-28T12:42:11.856Z,28.10
2022-10-28T12:44:40.306Z,28.00
2022-10-28T12:47:21.363Z,28.00
2022-10-28T12:49:49.651Z,28.00
2022-10-28T12:52:36.491Z,28.00
2022-10-28T12:57:44.646Z,28.00
2022-10-28T13:00:16.445Z,28.00
2022-10-28T13:03:04.042Z,28.00
2022-10-28T13:05:41.531Z,27.90
2022-10-28T13:08:09.990Z,27.90
2022-10-28T13:10:49.662Z,27.90
2022-10-28T13:13:30.326Z,27.90
2022-10-28T13:16:11.368Z,27.90
2022-10-28T13:18:49.004Z,27.90
2022-10-28T13:21:29.080Z,27.90
2022-10-28T13:23:59.550Z,27.90
2022-10-28T13:26:30.117Z,27.90
2022-10-28T13:28:59.579Z,27.90
2022-10-28T13:31:45.157Z,27.90
2022-10-28T13:34:14.480Z,27.90
2022-10-28T13:36:46.397Z,27.90
2022-10-28T13:39:25.390Z,27.90
2022-10-28T13:42:11.616Z,27.80
2022-10-28T13:45:00.923Z,27.80
2022-10-28T13:47:31.249Z,27.70
2022-10-28T13:50:08.655Z,27.70
2022-10-28T13:52:47.193Z,27.70
2022-10-28T13:55:14.778Z,27.70
2022-10-28T13:57:45.001Z,27.60
2022-10-28T14:00:18.815Z,27.60
2022-10-28T14:02:46.695Z,27.60
2022-10-28T14:05:16.773Z,27.50
2022-10-28T14:07:58.859Z,27.50
2022-10-28T14:10:28.086Z,27.50
2022-10-28T14:13:27.922Z,27.50
2022-10-28T14:16:31.055Z,27.40
2022-10-28T14:19:04.225Z,27.40
2022-10-28T14:21:45.452Z,27.40
2022-10-28T14:24:33.162Z,27.30
2022-10-28T14:27:10.081Z,27.30
2022-10-28T14:29:43.742Z,27.30
2022-10-28T14:32:31.320Z,27.30
2022-10-28T14:35:18.981Z,27.30
2022-10-28T14:37:46.511Z,27.30
2022-10-28T14:40:23.820Z,27.30
2022-10-28T14:43:06.658Z,27.30
2022-10-28T14:45:52.471Z,27.30
2022-10-28T14:48:42.410Z,27.30
2022-10-28T14:51:13.523Z,27.20
2022-10-28T14:53:41.962Z,27.20
2022-10-28T14:56:33.441Z,27.20
2022-10-28T14:59:07.092Z,27.20
2022-10-28T15:01:53.266Z,27.20
2022-10-28T15:04:22.616Z,27.20
2022-10-28T15:06:51.338Z,27.20
2022-10-28T15:09:19.104Z,27.20
2022-10-28T15:11:48.243Z,27.20
2022-10-28T15:14:23.918Z,27.10
2022-10-28T15:16:51.444Z,27.10
2022-10-28T15:19:26.064Z,27.10
2022-10-28T15:22:01.322Z,27.10
2022-10-28T15:24:29.959Z,27.00
2022-10-28T15:26:57.770Z,27.00
2022-10-28T15:29:25.789Z,27.00
2022-10-28T15:32:09.549Z,27.00
2022-10-28T15:34:43.408Z,26.90
2022-10-28T15:37:11.529Z,26.90
2022-10-28T15:39:39.975Z,26.90
2022-10-28T15:42:28.583Z,26.80
2022-10-28T15:44:57.600Z,26.80
2022-10-28T15:47:35.385Z,26.80
2022-10-28T15:50:32.187Z,26.80
2022-10-28T15:53:12.353Z,26.70
2022-10-28T15:58:35.314Z,26.60
2022-10-28T16:01:03.045Z,26.50
2022-10-28T16:03:46.894Z,26.40
2022-10-28T16:06:26.186Z,26.40
2022-10-28T16:09:04.017Z,26.40
2022-10-28T16:11:33.372Z,26.40
2022-10-28T16:14:04.235Z,26.30
2022-10-28T16:16:33.007Z,26.30
2022-10-28T16:19:08.448Z,26.20
2022-10-28T16:21:37.352Z,26.20
2022-10-28T16:24:04.956Z,26.10
2022-10-28T16:26:35.660Z,26.10
2022-10-28T16:29:03.205Z,26.10
2022-10-28T16:31:32.392Z,26.10
2022-10-28T16:34:00.056Z,26.10
2022-10-28T16:36:28.987Z,26.10
2022-10-28T16:38:56.989Z,26.00
2022-10-28T16:41:24.868Z,26.00
2022-10-28T16:43:52.370Z,26.00
2022-10-28T16:46:20.276Z,26.00
2022-10-28T16:48:47.935Z,26.00
2022-10-28T16:51:17.855Z,26.00
2022-10-28T16:53:50.147Z,26.00
2022-10-28T16:56:18.287Z,26.00
2022-10-28T16:58:46.445Z,26.00
2022-10-28T17:01:18.473Z,26.00
2022-10-28T17:03:47.029Z,25.90
2022-10-28T17:06:15.023Z,25.90
2022-10-28T17:09:01.853Z,25.90
2022-10-28T17:13:58.577Z,25.90
2022-10-28T17:16:26.176Z,25.90
2022-10-28T17:18:54.629Z,25.90
2022-10-28T17:21:22.167Z,25.90
2022-10-28T17:23:49.721Z,25.90
2022-10-28T17:26:17.460Z,25.80
2022-10-28T17:28:45.852Z,25.80
2022-10-28T17:31:19.139Z,25.80
2022-10-28T17:33:52.944Z,25.80
2022-10-28T17:36:20.523Z,25.80
2022-10-28T17:38:49.067Z,25.70
2022-10-28T17:41:16.926Z,25.70
2022-10-28T17:43:44.812Z,25.70
2022-10-28T17:46:13.648Z,25.70
2022-10-28T17:48:42.160Z,25.60
2022-10-28T17:51:09.715Z,25.60
2022-10-28T17:53:37.759Z,25.60
2022-10-28T17:56:06.356Z,25.60
2022-10-28T17:58:34.017Z,25.60
2022-10-28T18:01:09.708Z,25.50
2022-10-28T18:03:39.188Z,25.50
2022-10-28T18:06:08.119Z,25.50
2022-10-28T18:08:37.660Z,25.40
2022-10-28T18:11:05.826Z,25.40
2022-10-28T18:13:34.578Z,25.30
2022-10-28T18:16:12.630Z,25.30
2022-10-28T18:18:42.485Z,25.30
2022-10-28T18:21:11.407Z,25.30
2022-10-28T18:23:40.626Z,25.30
2022-10-28T18:26:10.403Z,25.30
2022-10-28T18:28:38.239Z,25.20
2022-10-28T18:31:09.359Z,25.20
2022-10-28T18:33:37.396Z,25.20
2022-10-28T18:36:07.104Z,25.20
2022-10-28T18:38:34.684Z,25.20
2022-10-28T18:41:02.378Z,25.20
2022-10-28T18:43:29.920Z,25.10
2022-10-28T18:46:00.853Z,25.10
2022-10-28T18:48:28.576Z,25.10
2022-10-28T18:51:00.334Z,25.10
2022-10-28T18:53:28.143Z,25.10
2022-10-28T18:56:00.340Z,25.00
2022-10-28T18:58:28.233Z,25.00
2022-10-28T19:01:03.697Z,25.00
2022-10-28T19:03:32.823Z,25.00
2022-10-28T19:06:19.111Z,24.90
2022-10-28T19:08:50.473Z,24.90
2022-10-28T19:11:18.079Z,24.80
2022-10-28T19:13:45.722Z,24.80
2022-10-28T19:16:13.895Z,24.80
2022-10-28T19:18:41.490Z,24.80
2022-10-28T19:21:14.466Z,24.70
2022-10-28T19:23:42.394Z,24.70
2022-10-28T19:26:11.890Z,24.60
2022-10-28T19:28:40.725Z,24.60
2022-10-28T19:31:09.879Z,24.60
2022-10-28T19:33:40.808Z,24.60
2022-10-28T19:36:10.974Z,24.60
2022-10-28T19:38:39.101Z,24.60
2022-10-28T19:41:08.457Z,24.60
2022-10-28T19:43:37.335Z,24.50
2022-10-28T19:46:06.137Z,24.50
2022-10-28T19:48:33.721Z,24.50
2022-10-28T19:51:01.435Z,24.50
2022-10-28T19:53:29.142Z,24.50
2022-10-28T19:56:00.838Z,24.50
2022-10-28T19:58:29.057Z,24.50
2022-10-28T20:01:00.431Z,24.50
2022-10-28T20:03:30.463Z,24.50
2022-10-28T20:06:06.511Z,24.50
2022-10-28T20:08:35.353Z,24.50
2022-10-28T20:11:05.300Z,24.50
2022-10-28T20:13:33.364Z,24.40
2022-10-28T20:16:01.803Z,24.40
2022-10-28T20:18:34.451Z,24.30
2022-10-28T20:21:14.655Z,24.30
2022-10-28T20:23:42.936Z,24.30
2022-10-28T20:26:11.937Z,24.30
2022-10-28T20:28:39.940Z,24.30
2022-10-28T20:31:10.370Z,24.20
2022-10-28T20:33:38.946Z,24.30
2022-10-28T20:36:07.543Z,24.30
2022-10-28T20:38:35.129Z,24.20
2022-10-28T20:41:02.695Z,24.20
2022-10-28T20:43:30.414Z,24.20
2022-10-28T20:46:02.894Z,24.20
2022-10-28T20:48:31.441Z,24.20
2022-10-28T20:51:00.155Z,24.10
2022-10-28T20:53:28.692Z,24.10
2022-10-28T20:55:58.182Z,24.10
2022-10-28T20:58:28.190Z,24.20
2022-10-28T21:00:56.046Z,24.20
2022-10-28T21:03:23.627Z,24.20
2022-10-28T21:05:51.162Z,24.20
2022-10-28T21:08:18.845Z,24.20
2022-10-28T21:10:46.385Z,24.20
2022-10-28T21:13:14.190Z,24.10
2022-10-28T21:15:42.793Z,24.00
2022-10-28T21:18:10.340Z,24.00
2022-10-28T21:20:39.402Z,24.00
2022-10-28T21:23:07.405Z,23.90
2022-10-28T21:25:34.979Z,23.90
2022-10-28T21:28:02.536Z,23.90
2022-10-28T21:30:30.172Z,23.90
2022-10-28T21:32:58.407Z,23.80
2022-10-28T21:35:27.349Z,23.80
2022-10-28T21:37:56.324Z,23.80
2022-10-28T21:40:24.377Z,23.80
2022-10-28T21:42:52.061Z,23.80
2022-10-28T21:45:19.837Z,23.80
2022-10-28T21:47:47.644Z,23.70
2022-10-28T21:50:16.026Z,23.80
2022-10-28T21:52:43.656Z,23.70
2022-10-28T21:55:20.757Z,23.70
2022-10-28T21:57:57.313Z,23.80
2022-10-28T22:00:30.327Z,23.70
2022-10-28T22:02:58.202Z,23.70
2022-10-28T22:05:25.897Z,23.70
2022-10-28T22:07:54.247Z,23.60
2022-10-28T22:10:22.309Z,23.60
2022-10-28T22:12:52.651Z,23.50
2022-10-28T22:15:20.234Z,23.50
2022-10-28T22:17:48.005Z,23.50
2022-10-28T22:20:16.309Z,23.50
2022-10-28T22:22:44.782Z,23.50
2022-10-28T22:25:12.506Z,23.40
2022-10-28T22:27:40.219Z,23.50
2022-10-28T22:30:08.560Z,23.50
2022-10-28T22:32:39.308Z,23.50
2022-10-28T22:35:07.521Z,23.40
2022-10-28T22:37:35.525Z,23.40
2022-10-28T22:40:03.757Z,23.40
2022-10-28T22:42:31.356Z,23.30
2022-10-28T22:44:59.269Z,23.30
2022-10-28T22:47:28.063Z,23.20
2022-10-28T22:49:57.982Z,23.20
2022-10-28T22:52:25.609Z,23.10
2022-10-28T22:54:53.176Z,23.20
2022-10-28T22:57:21.072Z,23.10
2022-10-28T22:59:49.717Z,23.10
2022-10-28T23:02:17.619Z,23.10
2022-10-28T23:04:45.580Z,23.10
2022-10-28T23:07:13.487Z,23.10
2022-10-28T23:09:41.488Z,23.10
2022-10-28T23:12:09.446Z,23.10
2022-10-28T23:14:37.072Z,23.10
2022-10-28T23:17:05.167Z,23.10
2022-10-28T23:19:32.691Z,23.10
2022-10-28T23:22:00.485Z,23.10
2022-10-28T23:24:29.146Z,23.10
2022-10-28T23:29:25.143Z,23.10
2022-10-28T23:31:53.650Z,23.10
2022-10-28T23:34:21.538Z,23.10
2022-10-28T23:36:54.623Z,23.10
2022-10-28T23:39:27.865Z,23.10
2022-10-28T23:41:55.545Z,23.10
2022-10-28T23:44:23.098Z,23.10
2022-10-28T23:46:51.578Z,23.10
2022-10-28T23:49:19.717Z,23.20
2022-10-28T23:51:47.699Z,23.20
2022-10-28T23:54:15.350Z,23.20
2022-10-28T23:56:43.856Z,23.20
2022-10-28T23:59:12.707Z,23.30
